Time;durP1;ratioP1;P1;durP2;ratioP2;P2;SDS_P1;SDS_P2;PMS_P1;PMS_P2;Temp;Humidity;BMP_temperature;BMP_pressure;BME280_temperature;BME280_humidity;BME280_pressure;Samples;Min_cycle;Max_cycle;Signal;HPM_P1;HPM_P2
2022/06/07 00:01:48;;;;;;;2.58;1.48;;;;;;;27.13;43.22;100482.44;5008032;28;20053;-80
2022/06/07 00:04:35;;;;;;;6.80;1.55;;;;;;;27.11;43.08;100479.31;5011771;28;20046;-79
2022/06/07 00:07:21;;;;;;;6.15;1.90;;;;;;;27.10;43.30;100477.75;4997153;28;20081;-80
2022/06/07 00:10:06;;;;;;;4.78;1.55;;;;;;;27.08;42.99;100460.63;5012316;28;20045;-80
2022/06/07 00:12:51;;;;;;;7.90;2.13;;;;;;;27.06;43.50;100460.28;5018366;28;20434;-79
2022/06/07 00:15:38;;;;;;;3.50;1.40;;;;;;;27.05;43.38;100461.50;5031250;28;20044;-79
2022/06/07 00:18:23;;;;;;;7.65;2.38;;;;;;;27.02;43.49;100456.00;5011780;28;20053;-79
2022/06/07 00:21:08;;;;;;;3.25;1.80;;;;;;;26.99;43.47;100440.91;5026708;28;20044;-80
2022/06/07 00:23:53;;;;;;;5.05;1.83;;;;;;;26.97;43.04;100440.53;5021905;28;20049;-80
2022/06/07 00:26:38;;;;;;;3.72;1.42;;;;;;;26.99;43.51;100445.69;5012134;28;20053;-80
2022/06/07 00:29:25;;;;;;;4.63;1.50;;;;;;;26.97;43.39;100434.19;5010611;28;20076;-80
2022/06/07 00:32:10;;;;;;;3.25;1.85;;;;;;;26.93;43.62;100431.47;5012322;28;20049;-80
2022/06/07 00:34:54;;;;;;;8.13;1.83;;;;;;;26.89;43.98;100441.94;5020056;28;20052;-80
2022/06/07 00:37:40;;;;;;;5.70;1.63;;;;;;;26.87;44.53;100441.56;5019999;28;20060;-80
2022/06/07 00:40:25;;;;;;;6.15;1.63;;;;;;;26.85;44.35;100446.00;5013356;28;20060;-80
2022/06/07 00:43:10;;;;;;;2.90;1.50;;;;;;;26.86;44.36;100450.34;5013951;28;20049;-80
2022/06/07 00:45:57;;;;;;;5.30;1.80;;;;;;;26.86;44.49;100450.34;5011736;28;20064;-80
2022/06/07 00:48:42;;;;;;;3.35;1.58;;;;;;;26.79;44.32;100440.13;5011724;28;20037;-79
2022/06/07 00:51:27;;;;;;;3.25;1.70;;;;;;;26.78;44.63;100430.19;5012023;28;20112;-80
2022/06/07 00:54:23;;;;;;;5.13;2.15;;;;;;;26.77;44.57;100418.22;5019858;28;20414;-79
2022/06/07 00:57:11;;;;;;;4.63;1.90;;;;;;;26.74;44.56;100418.31;5024695;28;20049;-79
2022/06/07 00:59:57;;;;;;;8.30;2.17;;;;;;;26.71;44.66;100408.81;5009847;28;20693;-80
2022/06/07 01:02:42;;;;;;;7.65;1.80;;;;;;;26.71;44.92;100402.47;5011602;28;20056;-80
2022/06/07 01:05:27;;;;;;;4.57;1.83;;;;;;;26.69;44.38;100382.56;5015297;28;20049;-81
2022/06/07 01:11:26;;;;;;;8.98;2.47;;;;;;;26.67;44.91;100379.41;4992532;28;20053;-79
2022/06/07 01:14:11;;;;;;;8.88;2.28;;;;;;;26.59;45.21;100364.84;5026183;28;20056;-79
2022/06/07 01:16:56;;;;;;;8.05;2.15;;;;;;;26.58;45.08;100365.28;5017249;28;20040;-79
2022/06/07 01:19:42;;;;;;;5.78;2.53;;;;;;;26.57;45.20;100369.28;5015852;28;20049;-81
2022/06/07 01:22:27;;;;;;;7.03;2.55;;;;;;;26.53;45.28;100368.56;5011228;28;20053;-81
2022/06/07 01:25:12;;;;;;;3.95;2.17;;;;;;;26.53;45.41;100374.16;5011935;28;20053;-80
2022/06/07 01:27:57;;;;;;;4.22;1.92;;;;;;;26.51;45.77;100376.59;5016352;28;20049;-82
2022/06/07 01:30:42;;;;;;;7.57;2.10;;;;;;;26.54;45.41;100381.31;5017513;28;20052;-82
2022/06/07 01:33:27;;;;;;;10.68;2.65;;;;;;;26.53;46.34;100388.88;5024417;28;20057;-81
2022/06/07 01:36:14;;;;;;;15.25;2.45;;;;;;;26.52;46.30;100389.31;5024356;28;20523;-82
2022/06/07 04:52:28;;;;;;;11.32;2.53;;;;;;;23.99;58.64;100410.47;5000831;28;20050;-78
2022/06/07 04:55:17;;;;;;;8.85;2.78;;;;;;;24.04;58.68;100418.34;5014365;28;20527;-78
2022/06/07 04:58:02;;;;;;;6.43;2.05;;;;;;;24.18;58.48;100430.13;4996606;28;20057;-79
2022/06/07 05:00:47;;;;;;;20.27;2.35;;;;;;;24.24;58.21;100452.69;4999070;28;20065;-80
2022/06/07 05:03:34;;;;;;;9.25;2.15;;;;;;;24.31;58.22;100460.94;4999765;28;20053;-79
2022/06/07 05:06:36;;;;;;;12.57;2.47;;;;;;;24.28;58.51;100467.31;5002098;28;20061;-79
2022/06/07 05:09:33;;;;;;;10.50;2.53;;;;;;;24.24;58.61;100480.47;5002477;28;20042;-79
2022/06/07 05:12:32;;;;;;;17.90;2.20;;;;;;;24.31;58.39;100493.50;5004102;28;20073;-79
2022/06/07 05:15:18;;;;;;;13.65;1.80;;;;;;;24.35;58.39;100508.94;5000029;28;20048;-79
2022/06/07 05:18:10;;;;;;;12.68;2.50;;;;;;;24.43;58.33;100507.66;5001842;28;20049;-79
2022/06/07 05:20:57;;;;;;;19.63;2.88;;;;;;;24.44;58.29;100503.69;4995443;28;20045;-79
2022/06/07 05:23:41;;;;;;;13.50;3.42;;;;;;;24.36;58.76;100509.72;5001713;28;20069;-79
2022/06/07 05:26:38;;;;;;;13.80;2.03;;;;;;;24.49;58.51;100508.78;4995257;28;20053;-79
2022/06/07 05:29:29;;;;;;;12.77;2.50;;;;;;;24.58;58.28;100513.88;4999851;28;20423;-80
2022/06/07 05:32:15;;;;;;;16.25;2.78;;;;;;;24.60;58.35;100503.88;5001336;28;20053;-80
2022/06/07 05:35:06;;;;;;;31.60;4.03;;;;;;;24.68;58.26;100499.84;4995977;28;20502;-80
2022/06/07 05:37:56;;;;;;;21.35;3.15;;;;;;;24.67;58.55;100494.69;5002600;28;20057;-79
2022/06/07 05:40:44;;;;;;;9.38;3.25;;;;;;;24.61;58.44;100494.34;5001046;28;20057;-79
2022/06/07 05:43:32;;;;;;;6.85;2.72;;;;;;;24.60;58.25;100497.53;5000548;28;20053;-83
2022/06/07 05:46:18;;;;;;;14.90;2.75;;;;;;;24.65;58.21;100506.22;4997853;28;20045;-78
2022/06/07 05:49:10;;;;;;;10.48;3.75;;;;;;;24.07;60.96;100507.25;4999718;28;20418;-78
2022/06/07 05:52:11;;;;;;;13.95;2.75;;;;;;;23.84;62.14;100513.38;4996512;28;20045;-79
2022/06/07 05:54:58;;;;;;;8.02;2.65;;;;;;;23.57;62.78;100515.19;4994026;28;20526;-78
2022/06/07 05:57:49;;;;;;;8.65;2.78;;;;;;;23.38;63.82;100516.50;4999591;28;20132;-79
2022/06/07 06:00:36;;;;;;;5.65;2.38;;;;;;;23.32;63.52;100514.53;5000070;28;20204;-79
2022/06/07 06:03:23;;;;;;;11.23;3.40;;;;;;;23.34;63.54;100518.50;4999618;28;20411;-79
2022/06/07 06:06:10;;;;;;;9.85;3.20;;;;;;;23.25;64.63;100517.38;4999140;28;20049;-79
2022/06/07 06:12:05;;;;;;;6.63;2.50;;;;;;;22.97;65.74;100519.13;4989391;28;20515;-78
2022/06/07 06:15:08;;;;;;;11.70;3.83;;;;;;;23.02;65.69;100524.25;4994097;28;20037;-78
2022/06/07 06:17:55;;;;;;;7.28;3.53;;;;;;;23.00;66.28;100525.84;4993557;28;20053;-78
2022/06/07 06:20:53;;;;;;;11.20;3.00;;;;;;;23.03;66.07;100525.03;4989936;28;20046;-78
2022/06/07 06:23:43;;;;;;;7.03;2.90;;;;;;;22.79;66.78;100529.50;4991673;28;20049;-78
2022/06/07 06:26:28;;;;;;;11.85;4.28;;;;;;;22.85;66.63;100530.69;4996847;28;20053;-79
2022/06/07 06:29:14;;;;;;;6.15;2.25;;;;;;;22.93;66.82;100548.06;4989509;28;20049;-79
2022/06/07 06:32:00;;;;;;;9.93;2.83;;;;;;;23.36;64.85;100538.31;4991848;28;20045;-79
2022/06/07 06:34:45;;;;;;;7.50;2.92;;;;;;;23.46;65.01;100545.03;4991433;28;20050;-79
2022/06/07 06:37:32;;;;;;;8.07;2.85;;;;;;;23.48;64.73;100533.50;4988143;28;20127;-79
2022/06/07 06:40:22;;;;;;;6.18;2.80;;;;;;;23.29;65.19;100535.59;4996945;28;20065;-79
2022/06/07 06:43:13;;;;;;;11.52;3.13;;;;;;;23.16;65.51;100519.81;4999894;28;20054;-79
2022/06/07 06:46:28;;;;;;;10.57;2.42;;;;;;;23.00;65.75;100511.97;4999291;28;20045;-78
2022/06/07 06:49:14;;;;;;;4.95;2.33;;;;;;;23.13;65.31;100501.19;4997415;28;20042;-78
2022/06/07 06:52:01;;;;;;;4.88;2.17;;;;;;;23.05;65.36;100489.38;5001208;28;20072;-79
2022/06/07 06:54:50;;;;;;;7.22;1.80;;;;;;;23.03;65.48;100475.91;4999662;28;20046;-79
2022/06/07 06:57:40;;;;;;;7.13;2.70;;;;;;;22.90;65.90;100465.69;4998514;28;20050;-78
2022/06/07 07:00:26;;;;;;;7.53;2.08;;;;;;;22.88;65.86;100452.22;4999037;28;20053;-79
2022/06/07 07:03:11;;;;;;;11.05;2.60;;;;;;;22.98;65.67;100445.03;5000446;28;20057;-78
2022/06/07 07:05:56;;;;;;;6.32;1.88;;;;;;;23.16;65.45;100451.22;4998778;28;20045;-79
2022/06/07 07:08:48;;;;;;;4.30;2.08;;;;;;;23.34;64.29;100468.56;4999104;28;20408;-79
2022/06/07 07:11:38;;;;;;;5.00;1.58;;;;;;;23.52;63.48;100457.31;4998917;28;20216;-79
2022/06/07 07:14:26;;;;;;;6.57;1.60;;;;;;;23.62;63.25;100450.88;4997962;28;20054;-79
2022/06/07 07:17:11;;;;;;;12.70;1.67;;;;;;;23.61;62.93;100443.00;4999560;28;20061;-79
2022/06/07 07:19:57;;;;;;;6.25;1.83;;;;;;;23.60;62.52;100453.31;4978122;28;20058;-79
2022/06/07 07:22:43;;;;;;;6.63;1.40;;;;;;;23.47;62.64;100454.22;4978249;28;20049;-79
2022/06/07 07:25:28;;;;;;;9.00;1.77;;;;;;;23.36;62.88;100457.84;4982049;28;20065;-79
2022/06/07 07:28:13;;;;;;;7.43;1.77;;;;;;;23.24;63.32;100463.88;4979815;28;20042;-78
2022/06/07 07:31:04;;;;;;;8.00;2.05;;;;;;;23.02;64.29;100465.19;4999203;28;20506;-78
2022/06/07 07:33:51;;;;;;;4.53;1.75;;;;;;;23.05;63.99;100471.94;4987950;28;20045;-78
2022/06/07 07:36:41;;;;;;;2.67;1.45;;;;;;;22.99;65.12;100469.59;4995846;28;20057;-78
2022/06/07 07:39:26;;;;;;;4.35;1.65;;;;;;;22.81;65.72;100462.53;4992918;28;20050;-78
2022/06/07 07:42:12;;;;;;;8.30;1.60;;;;;;;22.75;66.07;100458.63;4994534;28;20053;-78
2022/06/07 07:45:02;;;;;;;7.03;1.92;;;;;;;22.95;65.15;100457.72;4989783;28;20041;-78
2022/06/07 07:47:47;;;;;;;3.50;1.45;;;;;;;23.15;64.63;100454.44;4997148;28;20053;-78
2022/06/07 07:50:32;;;;;;;5.65;1.35;;;;;;;23.24;63.83;100450.00;4996128;28;20045;-78
2022/06/07 07:53:20;;;;;;;6.47;1.70;;;;;;;23.25;63.94;100443.25;4997217;28;20422;-79
2022/06/07 07:56:07;;;;;;;7.55;1.70;;;;;;;23.18;64.24;100443.28;4996700;28;20049;-78
2022/06/07 07:58:55;;;;;;;6.65;1.67;;;;;;;23.13;64.39;100431.84;4991339;28;20045;-78
2022/06/07 08:01:42;;;;;;;10.10;2.22;;;;;;;23.23;63.61;100434.53;4994986;28;20403;-78
2022/06/07 08:04:27;;;;;;;3.47;1.67;;;;;;;23.28;62.96;100436.09;4997214;28;20065;-78
2022/06/07 08:07:16;;;;;;;5.60;1.65;;;;;;;23.10;64.47;100425.13;4999724;28;20053;-78
2022/06/07 08:10:02;;;;;;;2.92;1.25;;;;;;;23.19;63.58;100427.44;4998431;28;20458;-79
2022/06/07 08:12:47;;;;;;;8.23;1.88;;;;;;;23.15;64.39;100410.03;4997942;28;20092;-79
2022/06/07 08:15:33;;;;;;;5.07;1.50;;;;;;;23.03;64.75;100416.84;4997364;28;20057;-79
2022/06/07 08:18:18;;;;;;;8.13;1.65;;;;;;;23.05;63.99;100411.69;4998119;28;20050;-79
2022/06/07 08:21:06;;;;;;;7.15;1.83;;;;;;;23.26;63.80;100405.97;4998299;28;20057;-79
2022/06/07 08:23:53;;;;;;;6.40;3.33;;;;;;;23.32;64.49;100409.88;4998291;28;20069;-79
2022/06/07 08:26:37;;;;;;;4.32;1.55;;;;;;;23.41;63.94;100410.22;4998632;28;20069;-79
2022/06/07 08:29:22;;;;;;;3.00;1.40;;;;;;;23.60;63.11;100402.53;4998454;28;20045;-79
2022/06/07 08:32:08;;;;;;;6.75;2.00;;;;;;;23.86;62.27;100404.66;4998158;28;20041;-79
2022/06/07 08:37:57;;;;;;;4.97;1.60;;;;;;;24.27;60.43;100399.84;4991694;28;20049;-79
2022/06/07 08:40:44;;;;;;;6.97;1.80;;;;;;;24.42;58.99;100403.25;4999005;28;20040;-79
2022/06/07 08:43:30;;;;;;;7.63;1.65;;;;;;;24.56;59.62;100408.59;4999668;28;20061;-79
2022/06/07 08:46:18;;;;;;;10.98;2.10;;;;;;;24.78;59.11;100408.31;4997934;28;20046;-79
2022/06/07 08:49:05;;;;;;;4.78;1.50;;;;;;;24.79;57.53;100404.34;4999600;28;20584;-79
2022/06/07 08:52:14;;;;;;;2.08;1.27;;;;;;;24.93;58.29;100404.94;4997046;28;20057;-79
2022/06/07 08:55:02;;;;;;;6.68;1.25;;;;;;;25.14;55.78;100398.25;4996697;28;20527;-78
2022/06/07 08:58:08;;;;;;;5.40;1.60;;;;;;;25.35;53.80;100397.88;4999331;28;20045;-78
2022/06/07 09:00:58;;;;;;;5.82;1.67;;;;;;;25.27;54.29;100390.88;5016835;22;20042;-58
2022/06/07 09:04:04;;;;;;;3.00;1.40;;;;;;;25.40;55.24;100380.69;5022074;28;20057;-58
2022/06/07 09:06:55;;;;;;;1.75;1.00;;;;;;;25.53;53.63;100386.47;5014903;28;20049;-58
2022/06/07 09:13:07;;;;;;;7.35;1.50;;;;;;;25.83;52.57;100382.75;4992343;28;20049;-59
2022/06/07 09:15:56;;;;;;;3.20;1.40;;;;;;;26.04;52.69;100392.69;4992487;28;20401;-59
2022/06/07 09:18:41;;;;;;;4.22;1.35;;;;;;;26.12;52.27;100383.75;4994955;28;20066;-59
2022/06/07 09:21:30;;;;;;;7.53;1.30;;;;;;;26.21;52.93;100386.75;4992649;28;20065;-59
2022/06/07 09:24:40;;;;;;;2.13;1.00;;;;;;;26.26;52.66;100388.31;5000251;28;20050;-58
2022/06/07 09:27:30;;;;;;;2.83;1.27;;;;;;;26.33;52.56;100386.13;5002078;28;20160;-58
2022/06/07 09:30:15;;;;;;;2.63;1.42;;;;;;;26.27;52.38;100385.06;5002870;28;20536;-58
2022/06/07 09:33:10;;;;;;;5.00;1.42;;;;;;;26.43;50.92;100389.13;5003635;28;20057;-58
2022/06/07 09:35:59;;;;;;;2.45;0.70;;;;;;;26.53;48.71;100388.88;4997029;28;20049;-59
2022/06/07 09:39:04;;;;;;;5.65;1.80;;;;;;;26.59;48.71;100389.16;4996826;28;20049;-59
2022/06/07 09:41:54;;;;;;;4.85;1.50;;;;;;;26.57;50.72;100388.81;5003110;28;20053;-58
2022/06/07 09:44:57;;;;;;;4.70;1.27;;;;;;;26.54;50.67;100389.69;5000527;28;20053;-59
2022/06/07 09:47:42;;;;;;;5.50;1.20;;;;;;;26.49;50.64;100384.63;4998282;28;20066;-59
2022/06/07 09:50:35;;;;;;;5.95;1.02;;;;;;;26.46;49.91;100385.50;4995214;28;20045;-59
2022/06/07 09:53:20;;;;;;;5.28;1.30;;;;;;;26.42;49.93;100376.38;4996405;28;20061;-59
2022/06/07 09:56:27;;;;;;;3.75;1.20;;;;;;;26.54;49.69;100372.94;4995942;28;20402;-59
2022/06/07 09:59:30;;;;;;;4.72;1.10;;;;;;;26.60;49.37;100379.59;4997533;28;20053;-60
2022/06/07 10:02:55;;;;;;;4.82;1.33;;;;;;;26.63;49.81;100364.75;4997471;28;20053;-59
2022/06/07 10:05:46;;;;;;;3.33;0.93;;;;;;;26.66;47.29;100372.28;4996125;28;20065;-59
2022/06/07 10:09:01;;;;;;;3.65;0.88;;;;;;;26.85;47.43;100363.06;4998840;28;20045;-59
2022/06/07 10:11:54;;;;;;;7.90;1.20;;;;;;;26.93;47.99;100356.09;5000186;28;20058;-61
2022/06/07 10:14:54;;;;;;;8.05;2.45;;;;;;;26.86;49.38;100358.25;4987384;28;20065;-61
2022/06/07 10:17:46;;;;;;;7.13;1.10;;;;;;;26.94;49.21;100352.09;4995197;28;20049;-61
2022/06/07 10:20:54;;;;;;;3.42;1.10;;;;;;;26.94;48.81;100354.88;5000881;28;20065;-61
2022/06/07 10:24:00;;;;;;;4.35;1.00;;;;;;;26.94;48.82;100360.47;4987384;28;20042;-62
2022/06/07 10:27:11;;;;;;;2.63;0.90;;;;;;;27.00;47.98;100346.78;4986380;28;20566;-61
2022/06/07 10:30:19;;;;;;;6.00;0.98;;;;;;;26.97;48.77;100337.25;4996278;28;20065;-61
2022/06/07 10:33:47;;;;;;;3.33;0.90;;;;;;;27.03;46.33;100334.72;4990705;28;20046;-61
2022/06/07 10:36:54;;;;;;;6.03;0.90;;;;;;;27.07;48.14;100333.41;4992702;28;20049;-61
2022/06/07 10:39:53;;;;;;;1.50;0.90;;;;;;;27.08;48.34;100326.63;4994211;28;20054;-61
2022/06/07 10:42:53;;;;;;;3.17;0.75;;;;;;;27.17;46.54;100312.06;4993496;28;20048;-61
2022/06/07 10:45:45;;;;;;;2.03;0.82;;;;;;;27.26;45.50;100319.81;4997912;28;20462;-61
2022/06/07 10:48:47;;;;;;;5.53;0.88;;;;;;;27.37;44.94;100320.31;4993799;28;20053;-61
2022/06/07 10:55:10;;;;;;;2.63;0.70;;;;;;;27.55;41.48;100315.84;4991654;28;20401;-61
2022/06/07 10:58:20;;;;;;;3.23;0.60;;;;;;;27.63;43.64;100300.44;4992751;28;20042;-61
2022/06/07 11:01:19;;;;;;;3.08;1.08;;;;;;;27.60;45.64;100295.75;4988890;28;20285;-62
2022/06/07 11:10:51;;;;;;;12.35;0.93;;;;;;;27.56;44.11;100291.50;4987876;28;20605;-60
2022/06/07 11:14:06;;;;;;;3.00;1.02;;;;;;;27.65;44.92;100294.41;4982158;28;20066;-60
2022/06/07 11:17:14;;;;;;;1.42;0.90;;;;;;;27.70;40.79;100293.88;4975200;28;20062;-59
2022/06/07 11:20:30;;;;;;;15.63;3.25;;;;;;;27.95;42.19;100282.75;4974900;28;20072;-59
2022/06/07 11:23:32;;;;;;;13.88;2.90;;;;;;;27.68;45.42;100284.38;4981187;28;20049;-59
2022/06/07 11:26:24;;;;;;;5.28;1.30;;;;;;;27.68;44.71;100281.59;4974999;28;20533;-60
2022/06/07 11:29:22;;;;;;;3.17;1.25;;;;;;;27.65;44.77;100269.28;4974577;28;20045;-59
2022/06/07 11:32:41;;;;;;;5.93;1.67;;;;;;;27.51;42.78;100273.25;4974802;28;20050;-59
2022/06/07 11:35:54;;;;;;;2.38;1.20;;;;;;;27.74;43.01;100277.78;4974483;28;20119;-59
2022/06/07 11:38:57;;;;;;;5.43;1.33;;;;;;;27.76;44.05;100274.56;4974242;28;20053;-59
2022/06/07 11:41:52;;;;;;;6.97;1.40;;;;;;;27.89;43.62;100275.34;4974285;28;20049;-59
2022/06/07 11:44:46;;;;;;;4.07;0.98;;;;;;;27.75;45.06;100265.38;4974154;28;20054;-60
2022/06/07 11:47:47;;;;;;;4.20;1.13;;;;;;;27.68;44.16;100273.22;4978853;28;20527;-60
2022/06/07 11:51:04;;;;;;;1.70;0.80;;;;;;;27.71;44.62;100267.50;4980922;28;20453;-60
2022/06/07 11:54:16;;;;;;;1.35;0.70;;;;;;;27.35;45.99;100273.28;4982232;28;20045;-61
2022/06/07 11:57:35;;;;;;;1.63;0.80;;;;;;;27.28;46.23;100269.91;4975363;28;21310;-61
2022/06/07 12:00:34;;;;;;;2.55;1.23;;;;;;;27.16;46.36;100272.19;4982259;28;20437;-61
2022/06/07 12:03:30;;;;;;;3.20;1.13;;;;;;;27.04;45.73;100266.53;4976699;28;20041;-61
2022/06/07 12:06:23;;;;;;;3.13;1.08;;;;;;;27.20;45.64;100258.13;4991388;28;20432;-61
2022/06/07 12:09:18;;;;;;;3.55;0.90;;;;;;;27.17;46.49;100262.56;4993000;28;20049;-61
2022/06/07 12:12:23;;;;;;;2.25;0.80;;;;;;;27.08;46.66;100259.63;4973217;28;20046;-61
2022/06/07 12:15:21;;;;;;;3.95;0.95;;;;;;;26.89;46.71;100251.38;4990605;28;20045;-61
2022/06/07 12:18:29;;;;;;;3.72;0.95;;;;;;;26.80;47.00;100249.97;4982012;28;20697;-61
2022/06/07 12:21:21;;;;;;;5.15;1.50;;;;;;;26.71;47.59;100260.16;4988125;28;20546;-61
2022/06/07 12:24:17;;;;;;;1.25;0.75;;;;;;;26.83;46.56;100259.44;4991197;28;20398;-61
2022/06/07 12:27:25;;;;;;;3.10;0.88;;;;;;;26.69;47.58;100251.44;4991255;28;20069;-61
2022/06/07 12:30:28;;;;;;;1.42;0.75;;;;;;;26.76;47.77;100249.28;4994754;28;20053;-61
2022/06/07 12:33:33;;;;;;;13.30;1.08;;;;;;;26.79;47.46;100247.59;4976188;28;20057;-61
2022/06/07 12:36:31;;;;;;;6.00;1.40;;;;;;;26.70;47.89;100255.81;4974761;28;20361;-62
2022/06/07 12:39:22;;;;;;;1.17;0.60;;;;;;;26.69;46.17;100243.06;4990033;28;20053;-62
2022/06/07 12:42:18;;;;;;;4.00;1.40;;;;;;;26.70;45.88;100245.44;4990864;28;20042;-62
2022/06/07 12:45:23;;;;;;;3.20;0.70;;;;;;;26.68;46.23;100247.06;4988597;28;20397;-62
2022/06/07 12:48:18;;;;;;;2.60;0.70;;;;;;;26.61;46.47;100236.09;4994495;28;20046;-62
2022/06/07 12:51:28;;;;;;;0.98;0.50;;;;;;;26.48;46.90;100235.22;4991371;28;20069;-62
2022/06/07 12:54:24;;;;;;;4.10;0.70;;;;;;;26.34;46.17;100228.78;4991518;28;20045;-61
2022/06/07 12:57:26;;;;;;;6.78;0.88;;;;;;;26.25;46.34;100214.66;4995019;28;20417;-62
2022/06/07 13:00:28;;;;;;;2.25;1.15;;;;;;;26.25;46.67;100213.88;4991252;28;20046;-61
2022/06/07 13:03:37;;;;;;;2.42;0.90;;;;;;;26.21;47.55;100225.06;4991418;28;20045;-62
2022/06/07 13:06:28;;;;;;;2.72;0.82;;;;;;;26.15;46.89;100221.25;4991299;28;20393;-61
2022/06/07 13:09:21;;;;;;;3.28;1.02;;;;;;;26.09;46.54;100209.03;4991537;28;20065;-62
2022/06/07 13:12:21;;;;;;;2.50;0.85;;;;;;;26.07;47.02;100199.50;4991296;28;20066;-62
2022/06/07 13:15:21;;;;;;;1.65;0.93;;;;;;;26.01;47.19;100187.34;4987090;28;20049;-61
2022/06/07 13:18:18;;;;;;;4.03;1.10;;;;;;;25.91;46.82;100183.53;4993089;28;20046;-61
2022/06/07 13:21:34;;;;;;;3.33;1.23;;;;;;;25.91;47.92;100194.69;4986384;28;20053;-61
2022/06/07 13:24:50;;;;;;;3.00;1.05;;;;;;;25.82;48.95;100206.44;4989556;28;20057;-61
2022/06/07 13:27:50;;;;;;;4.15;0.98;;;;;;;25.87;49.00;100200.34;4994736;28;20042;-62
2022/06/07 13:30:46;;;;;;;2.53;0.77;;;;;;;25.97;49.14;100193.75;4998409;28;20041;-61
2022/06/07 13:33:39;;;;;;;1.52;0.70;;;;;;;25.88;48.81;100198.34;4994956;28;20057;-61
2022/06/07 13:36:42;;;;;;;2.30;0.80;;;;;;;25.89;48.30;100181.22;4994779;28;20050;-62
2022/06/07 13:39:36;;;;;;;0.75;0.50;;;;;;;26.01;47.57;100162.25;4993310;28;20093;-61
2022/06/07 13:42:34;;;;;;;0.90;0.60;;;;;;;26.06;47.71;100168.06;4995237;28;20053;-60
2022/06/07 13:45:30;;;;;;;1.83;0.80;;;;;;;26.05;48.53;100171.31;4999025;28;20049;-61
2022/06/07 13:54:50;;;;;;;1.13;0.80;;;;;;;25.93;48.74;100200.63;4994668;28;20393;-61
2022/06/07 13:57:41;;;;;;;2.80;0.80;;;;;;;25.84;49.30;100211.59;4994624;28;20045;-61
2022/06/07 14:00:33;;;;;;;7.55;1.20;;;;;;;25.76;49.14;100205.38;4993495;28;20057;-61
2022/06/07 14:03:38;;;;;;;9.18;0.98;;;;;;;25.83;50.21;100182.94;4994130;28;20045;-61
2022/06/07 14:06:38;;;;;;;5.50;0.90;;;;;;;25.93;50.16;100167.19;4991428;28;20042;-61
2022/06/07 14:09:33;;;;;;;2.08;0.80;;;;;;;26.02;49.48;100170.16;4993613;28;20061;-61
2022/06/07 14:12:24;;;;;;;4.45;1.00;;;;;;;26.01;49.98;100171.38;4993688;28;20513;-61
2022/06/07 14:15:16;;;;;;;3.30;0.82;;;;;;;25.97;49.13;100170.69;4994490;28;20529;-60
2022/06/07 14:18:12;;;;;;;2.63;0.73;;;;;;;25.94;49.11;100177.13;4994593;28;20049;-61
2022/06/07 14:21:03;;;;;;;1.88;0.85;;;;;;;25.96;48.89;100186.63;4994474;28;20050;-61
2022/06/07 14:23:54;;;;;;;2.67;1.23;;;;;;;25.98;48.49;100177.81;4992449;28;20560;-61
2022/06/07 14:26:47;;;;;;;2.72;1.35;;;;;;;25.94;49.87;100179.91;4978345;28;20049;-61
2022/06/07 14:29:38;;;;;;;10.38;1.63;;;;;;;25.99;49.96;100184.97;4988760;28;20045;-60
2022/06/07 14:32:38;;;;;;;2.05;0.88;;;;;;;26.14;49.67;100194.56;4998247;28;20050;-60
2022/06/07 14:35:32;;;;;;;2.58;0.82;;;;;;;26.24;50.32;100203.94;4993376;28;20069;-61
2022/06/07 14:38:25;;;;;;;3.90;1.08;;;;;;;26.35;48.44;100201.69;4992995;28;20045;-61
2022/06/07 14:41:16;;;;;;;1.17;0.82;;;;;;;26.48;47.43;100198.97;4997773;28;20402;-61
2022/06/07 14:44:08;;;;;;;0.82;0.28;;;;;;;26.53;44.88;100198.44;4991576;28;20049;-62
2022/06/07 14:46:59;;;;;;;1.17;0.63;;;;;;;26.57;43.88;100201.91;4993589;28;20057;-61
2022/06/07 14:49:56;;;;;;;2.85;0.20;;;;;;;26.57;43.32;100193.56;5000138;28;20041;-61
2022/06/07 14:52:48;;;;;;;1.33;0.55;;;;;;;26.68;43.19;100188.50;4993822;28;20049;-61
2022/06/07 14:55:39;;;;;;;0.57;0.30;;;;;;;26.65;43.17;100187.38;4997997;28;20058;-61
2022/06/07 14:58:30;;;;;;;2.35;0.40;;;;;;;26.74;43.47;100189.53;4993402;28;20046;-61
2022/06/07 15:01:45;;;;;;;1.90;0.88;;;;;;;26.80;41.81;100171.84;5066596;22;20057;-61
2022/06/07 15:04:53;;;;;;;0.63;0.30;;;;;;;26.86;42.32;100165.72;5012898;28;20049;-61
2022/06/07 15:07:48;;;;;;;0.95;0.20;;;;;;;26.85;40.81;100156.56;5012960;28;20041;-61
2022/06/07 15:10:42;;;;;;;0.90;0.25;;;;;;;26.96;40.98;100159.09;5012352;28;20068;-61
2022/06/07 15:13:33;;;;;;;3.58;0.20;;;;;;;26.91;39.64;100154.06;5012693;28;20053;-61
2022/06/07 15:16:26;;;;;;;2.63;0.40;;;;;;;26.95;39.57;100154.72;5012364;28;20045;-61
2022/06/07 15:19:23;;;;;;;1.45;0.30;;;;;;;27.03;39.13;100154.09;5012419;28;20057;-60
2022/06/07 15:22:16;;;;;;;1.02;0.40;;;;;;;27.01;39.39;100148.19;5012446;28;20069;-61
2022/06/07 15:25:15;;;;;;;1.05;0.10;;;;;;;27.08;38.58;100136.78;5012732;28;20489;-61
2022/06/07 15:28:06;;;;;;;1.85;0.40;;;;;;;27.19;41.68;100147.66;5012541;28;20045;-60
2022/06/07 15:30:57;;;;;;;1.67;0.80;;;;;;;27.02;43.89;100146.94;5012475;28;20053;-61
2022/06/07 15:33:52;;;;;;;6.65;1.75;;;;;;;27.16;42.41;100160.50;5012508;28;20045;-60
2022/06/07 15:36:44;;;;;;;8.30;0.70;;;;;;;27.55;42.64;100153.03;5012026;28;20049;-63
2022/06/07 15:39:35;;;;;;;4.22;1.05;;;;;;;27.28;43.77;100163.78;5012432;28;20050;-63
2022/06/07 15:45:40;;;;;;;4.85;1.02;;;;;;;26.30;45.19;100165.97;5012326;28;20045;-64
2022/06/07 15:48:32;;;;;;;4.95;0.70;;;;;;;26.12;47.97;100168.34;5011528;28;20052;-64
2022/06/07 15:51:25;;;;;;;2.63;0.95;;;;;;;25.92;46.54;100154.47;5012308;28;20049;-65
2022/06/07 15:54:16;;;;;;;6.22;0.70;;;;;;;25.83;46.47;100155.09;5011871;28;20064;-66
2022/06/07 15:57:08;;;;;;;1.00;0.57;;;;;;;26.16;46.89;100152.34;5012132;28;20041;-68
2022/06/07 15:59:59;;;;;;;1.42;0.50;;;;;;;26.15;45.77;100147.97;5017353;28;20523;-62
2022/06/07 16:03:00;;;;;;;2.00;0.57;;;;;;;26.60;45.63;100145.28;5018483;28;20072;-63
2022/06/07 16:05:52;;;;;;;1.63;0.73;;;;;;;26.74;44.99;100144.91;5012031;28;20057;-64
2022/06/07 16:08:43;;;;;;;1.50;0.55;;;;;;;26.32;44.80;100144.78;5011677;28;20052;-64
2022/06/07 16:11:35;;;;;;;6.07;0.80;;;;;;;26.51;45.15;100157.06;5011893;28;20052;-64
2022/06/07 16:14:26;;;;;;;4.47;0.70;;;;;;;26.67;44.47;100167.38;5011533;28;20053;-62
2022/06/07 16:17:17;;;;;;;1.95;0.70;;;;;;;27.03;44.28;100165.25;5011577;28;20053;-63
2022/06/07 16:20:09;;;;;;;2.15;0.57;;;;;;;27.06;45.06;100161.59;5011829;28;20049;-61
2022/06/07 16:23:01;;;;;;;0.73;0.43;;;;;;;26.94;45.56;100161.53;5011752;28;20049;-62
2022/06/07 16:25:52;;;;;;;4.53;0.82;;;;;;;26.85;46.19;100164.94;5011412;28;20395;-61
2022/06/07 16:35:00;;;;;;;2.97;0.80;;;;;;;26.54;48.01;100170.13;5011478;28;20044;-61
2022/06/07 16:37:51;;;;;;;1.95;0.47;;;;;;;26.38;47.61;100162.53;5011122;28;20049;-61
2022/06/07 16:40:42;;;;;;;0.80;0.40;;;;;;;26.35;46.94;100168.22;5016982;28;20524;-61
2022/06/07 16:46:55;;;;;;;2.63;0.68;;;;;;;26.69;46.98;100164.97;5009818;28;20045;-62
2022/06/07 16:49:45;;;;;;;0.82;0.50;;;;;;;26.39;47.72;100178.06;5017071;28;20060;-62
2022/06/07 16:52:37;;;;;;;1.30;0.50;;;;;;;26.50;48.42;100179.81;5016428;28;20065;-60
2022/06/07 16:55:28;;;;;;;7.63;0.85;;;;;;;26.75;47.21;100174.38;5016988;28;20045;-64
2022/06/07 16:58:21;;;;;;;8.65;0.75;;;;;;;26.76;47.10;100175.94;5010931;28;20396;-62
2022/06/07 17:01:15;;;;;;;0.80;0.68;;;;;;;26.70;46.70;100172.09;5014110;28;20528;-63
2022/06/07 17:04:07;;;;;;;1.13;0.55;;;;;;;26.57;47.19;100174.03;5015070;28;20045;-61
2022/06/07 17:06:59;;;;;;;9.13;0.98;;;;;;;26.54;46.82;100175.69;5020787;28;20109;-62
2022/06/07 17:09:49;;;;;;;8.57;1.35;;;;;;;26.35;46.94;100163.44;5020692;28;20065;-62
2022/06/07 17:12:41;;;;;;;7.32;0.68;;;;;;;26.49;46.72;100159.50;5015159;28;20053;-62
2022/06/07 17:15:33;;;;;;;1.75;0.70;;;;;;;26.46;47.54;100159.59;5014920;28;20048;-63
2022/06/07 17:18:25;;;;;;;3.42;0.60;;;;;;;26.45;47.71;100155.22;5017142;28;20053;-62
2022/06/07 17:21:16;;;;;;;4.03;1.00;;;;;;;26.47;47.34;100152.78;5014483;28;20064;-61